Time;durP1;ratioP1;P1;durP2;ratioP2;P2;SDS_P1;SDS_P2;PMS_P1;PMS_P2;Temp;Humidity;BMP_temperature;BMP_pressure;BME280_temperature;BME280_humidity;BME280_pressure;Samples;Min_cycle;Max_cycle;Signal;HPM_P1;HPM_P2
2024/01/02 00:00:15;;;;;;;25.30;4.13;;;;;;;-146.25;100.00;52581.09;2079153;28;35939;-69
2024/01/02 00:01:19;;;;;;;19.83;4.13;;;;;;;-146.25;100.00;52589.22;2079085;28;31307;-69
2024/01/02 00:02:21;;;;;;;19.92;4.18;;;;;;;-146.25;100.00;52601.38;2080154;28;20038;-68
2024/01/02 00:03:24;;;;;;;27.65;4.28;;;;;;;-146.25;100.00;52603.41;2079817;28;32881;-70
2024/01/02 00:04:25;;;;;;;17.67;4.07;;;;;;;-146.25;100.00;52587.19;2078662;28;35514;-68
2024/01/02 00:05:30;;;;;;;24.38;4.40;;;;;;;-146.25;100.00;52562.84;2077469;28;20951;-67
2024/01/02 00:06:31;;;;;;;18.02;3.65;;;;;;;-146.25;100.00;52583.13;2079695;28;33309;-69
2024/01/02 00:07:33;;;;;;;19.92;4.10;;;;;;;-146.25;100.00;52577.03;2078876;28;35296;-69
2024/01/02 00:08:35;;;;;;;21.90;4.50;;;;;;;-146.25;100.00;52593.25;2079636;28;33921;-69
2024/01/02 00:09:37;;;;;;;31.50;4.32;;;;;;;-146.25;100.00;52591.25;2078774;28;35679;-71
2024/01/02 00:10:39;;;;;;;17.88;3.88;;;;;;;-146.25;100.00;52587.19;2078730;28;35008;-70
2024/01/02 00:11:42;;;;;;;20.02;3.55;;;;;;;-146.25;100.00;52579.06;2080455;28;20898;-69
2024/01/02 00:12:44;;;;;;;20.08;3.50;;;;;;;-146.25;100.00;52577.03;2079091;28;37714;-71
2024/01/02 00:13:46;;;;;;;21.20;3.78;;;;;;;-146.25;100.00;52579.06;2079599;28;34492;-70
2024/01/02 00:14:52;;;;;;;23.20;4.53;;;;;;;-146.25;100.00;52603.41;2080207;28;20046;-70
2024/01/02 00:15:58;;;;;;;19.95;3.92;;;;;;;-146.25;100.00;52562.84;2079276;28;37295;-70
2024/01/02 00:17:00;;;;;;;18.40;3.53;;;;;;;-146.25;100.00;52552.72;2080243;28;36250;-70
2024/01/02 00:18:02;;;;;;;17.70;3.60;;;;;;;-146.25;100.00;52575.00;2079779;28;34729;-69
2024/01/02 00:19:04;;;;;;;21.88;3.58;;;;;;;-146.25;100.00;52603.41;2079554;28;39276;-69
2024/01/02 00:20:09;;;;;;;15.63;3.25;;;;;;;-146.25;100.00;52546.63;2077806;28;30481;-70
2024/01/02 00:21:10;;;;;;;23.15;3.40;;;;;;;-146.25;100.00;52607.47;2079927;28;20049;-68
2024/01/02 00:22:12;;;;;;;14.85;3.17;;;;;;;-146.25;100.00;52613.53;2079143;28;32472;-69
2024/01/02 00:23:14;;;;;;;17.90;3.53;;;;;;;-146.25;100.00;52522.28;2079675;28;35341;-68
2024/01/02 00:24:16;;;;;;;15.35;3.03;;;;;;;-146.25;100.00;52556.75;2079197;28;32188;-68
2024/01/02 00:25:17;;;;;;;20.88;3.25;;;;;;;-146.25;100.00;52605.44;2079499;28;35618;-68
2024/01/02 00:26:19;;;;;;;22.27;3.25;;;;;;;-146.25;100.00;52566.91;2079754;28;30978;-68
2024/01/02 00:27:21;;;;;;;15.90;3.15;;;;;;;-146.25;100.00;52570.97;2079681;28;32625;-68
2024/01/02 00:28:23;;;;;;;19.88;3.47;;;;;;;-146.25;100.00;52591.25;2079617;28;31337;-69
2024/01/02 00:29:24;;;;;;;19.90;3.40;;;;;;;-146.25;100.00;52587.19;2080399;28;20917;-69
2024/01/02 00:30:32;;;;;;;23.23;3.33;;;;;;;-146.25;100.00;52591.25;2079651;28;27506;-69
2024/01/02 00:31:34;;;;;;;15.02;2.88;;;;;;;-146.25;100.00;52607.47;2079478;28;28075;-68
2024/01/02 00:32:35;;;;;;;21.48;3.15;;;;;;;-146.25;100.00;52560.81;2080217;28;20127;-69
2024/01/02 00:33:37;;;;;;;16.67;2.80;;;;;;;-146.25;100.00;52593.25;2079608;28;33339;-68
2024/01/02 00:34:39;;;;;;;17.25;3.00;;;;;;;-146.25;100.00;52585.16;2080637;28;20042;-69
2024/01/02 00:35:41;;;;;;;24.05;3.25;;;;;;;-146.25;100.00;52603.41;2080256;28;29956;-72
2024/01/02 00:36:43;;;;;;;17.42;2.92;;;;;;;-146.25;100.00;52570.97;2088675;28;23788;-70
2024/01/02 00:37:45;;;;;;;21.90;2.67;;;;;;;-146.25;100.00;52583.13;2088855;28;20892;-69
2024/01/02 00:38:47;;;;;;;14.23;2.50;;;;;;;-146.25;100.00;52585.16;2080718;28;30741;-70
2024/01/02 00:39:48;;;;;;;16.42;3.10;;;;;;;-146.25;100.00;52581.09;2072336;28;24302;-70
2024/01/02 00:40:52;;;;;;;17.95;2.80;;;;;;;-146.25;100.00;52583.13;2080978;28;20057;-69
2024/01/02 00:41:54;;;;;;;19.63;2.88;;;;;;;-146.25;100.00;52583.13;2081193;28;23534;-70
2024/01/02 00:42:56;;;;;;;16.65;2.83;;;;;;;-146.25;100.00;52583.13;2081575;28;24359;-70
2024/01/02 00:43:58;;;;;;;17.90;2.78;;;;;;;-146.25;100.00;52587.19;2081628;28;20091;-69
2024/01/02 00:45:02;;;;;;;21.92;2.80;;;;;;;-146.25;100.00;52562.84;2080918;28;27944;-69
2024/01/02 00:46:04;;;;;;;19.15;3.20;;;;;;;-146.25;100.00;52570.97;2080324;28;29710;-69
2024/01/02 00:47:09;;;;;;;11.35;2.33;;;;;;;-146.25;100.00;52579.06;2080107;28;20050;-70
2024/01/02 00:48:11;;;;;;;17.17;2.75;;;;;;;-146.25;100.00;52560.81;2081318;28;20084;-71
2024/01/02 00:49:13;;;;;;;17.02;2.70;;;;;;;-146.25;100.00;52581.09;2080694;28;29265;-69
2024/01/02 00:50:15;;;;;;;16.80;2.58;;;;;;;-146.25;100.00;52595.28;2080832;28;20112;-71
2024/01/02 00:51:17;;;;;;;15.48;2.40;;;;;;;-146.25;100.00;52570.97;2064562;28;20082;-70
2024/01/02 00:52:19;;;;;;;15.48;2.13;;;;;;;-146.25;100.00;52546.63;2064014;28;26272;-70
2024/01/02 00:53:20;;;;;;;19.38;2.35;;;;;;;-146.25;100.00;52581.09;2081591;28;20921;-70
2024/01/02 00:54:22;;;;;;;17.10;2.67;;;;;;;-146.25;100.00;52573.00;2071755;28;36239;-71
2024/01/02 00:55:26;;;;;;;13.68;2.40;;;;;;;-146.25;100.00;52568.94;2071780;28;29476;-71
2024/01/02 00:56:28;;;;;;;14.23;2.63;;;;;;;-146.25;100.00;52581.09;2081080;28;25483;-71
2024/01/02 00:57:31;;;;;;;18.38;2.10;;;;;;;-146.25;100.00;52615.56;2080236;28;31207;-71
2024/01/02 00:58:33;;;;;;;20.30;2.60;;;;;;;-146.25;100.00;52570.97;2072273;28;20062;-71
2024/01/02 00:59:34;;;;;;;19.63;2.75;;;;;;;-146.25;100.00;52526.34;2072550;28;23781;-71
2024/01/02 01:00:38;;;;;;;8.95;1.55;;;;;;;-146.25;100.00;52587.19;2080870;28;24057;-70
2024/01/02 01:01:40;;;;;;;18.30;2.50;;;;;;;-146.25;100.00;52603.41;2072454;28;22816;-70
2024/01/02 01:02:44;;;;;;;18.17;2.53;;;;;;;-146.25;100.00;52589.22;2064903;28;20039;-71
2024/01/02 01:03:46;;;;;;;13.32;2.42;;;;;;;-146.25;100.00;52558.78;2073118;28;20055;-71
2024/01/02 01:04:48;;;;;;;17.58;2.60;;;;;;;-146.25;100.00;52568.94;2071967;28;25226;-70
2024/01/02 01:05:50;;;;;;;18.77;2.83;;;;;;;-146.25;100.00;52627.75;2064087;28;29670;-71
2024/01/02 01:06:54;;;;;;;16.67;2.67;;;;;;;-146.25;100.00;52577.03;2072749;28;20042;-71
2024/01/02 01:07:56;;;;;;;17.98;2.65;;;;;;;-146.25;100.00;52585.16;2080420;28;20093;-71
2024/01/02 01:08:58;;;;;;;16.00;2.70;;;;;;;-146.25;100.00;52603.41;2072060;28;26064;-70
2024/01/02 01:10:00;;;;;;;14.45;2.45;;;;;;;-146.25;100.00;52587.19;2072789;28;20082;-71
2024/01/02 01:11:01;;;;;;;15.02;2.63;;;;;;;-146.25;100.00;52554.75;2072035;28;29221;-70
2024/01/02 01:12:04;;;;;;;22.25;2.65;;;;;;;-146.25;100.00;52554.75;2071708;28;26873;-70
2024/01/02 01:13:06;;;;;;;17.25;2.35;;;;;;;-146.25;100.00;52591.25;2072730;28;20965;-71
2024/01/02 01:14:08;;;;;;;19.88;2.33;;;;;;;-146.25;100.00;52566.91;2079704;28;30760;-71
2024/01/02 01:15:10;;;;;;;13.95;2.42;;;;;;;-146.25;100.00;52597.31;2078745;28;20061;-71
2024/01/02 01:16:12;;;;;;;10.13;2.22;;;;;;;-146.25;100.00;52611.50;2072568;28;20875;-71
2024/01/02 01:17:14;;;;;;;17.52;2.70;;;;;;;-146.25;100.00;52587.19;2071927;28;37679;-71
2024/01/02 01:18:18;;;;;;;18.90;3.13;;;;;;;-146.25;100.00;52591.25;2072310;28;26623;-71
2024/01/02 01:19:24;;;;;;;12.20;2.40;;;;;;;-146.25;100.00;52599.34;2081367;28;20053;-69
2024/01/02 01:20:25;;;;;;;13.45;2.42;;;;;;;-146.25;100.00;52556.75;2080208;28;27323;-71
2024/01/02 01:21:27;;;;;;;16.52;2.88;;;;;;;-146.25;100.00;52597.31;2080804;28;20076;-70
2024/01/02 01:22:32;;;;;;;20.13;2.88;;;;;;;-146.25;100.00;52593.25;2079685;28;26227;-71
2024/01/02 01:23:34;;;;;;;16.13;2.55;;;;;;;-146.25;100.00;52540.53;2072056;28;26200;-71
2024/01/02 01:24:37;;;;;;;15.27;2.35;;;;;;;-146.25;100.00;52593.25;2056969;28;20106;-71
2024/01/02 01:25:42;;;;;;;14.60;3.00;;;;;;;-146.25;100.00;52583.13;2064323;28;20050;-71
2024/01/02 01:26:45;;;;;;;15.38;2.50;;;;;;;-146.25;100.00;52562.84;2081228;28;20041;-71
2024/01/02 01:27:47;;;;;;;12.98;2.60;;;;;;;-146.25;100.00;52599.34;2079623;28;27085;-71
2024/01/02 01:28:48;;;;;;;15.07;2.88;;;;;;;-146.25;100.00;52583.13;2072099;28;27265;-71
2024/01/02 01:29:53;;;;;;;17.95;2.47;;;;;;;-146.25;100.00;52546.63;2072885;28;20807;-71
2024/01/02 01:30:57;;;;;;;16.95;2.78;;;;;;;-146.25;100.00;52587.19;2072678;28;27448;-71
2024/01/02 01:32:02;;;;;;;19.58;2.55;;;;;;;-146.25;100.00;52554.75;2073233;28;20165;-71
2024/01/02 01:33:07;;;;;;;19.33;3.08;;;;;;;-146.25;100.00;52566.91;2066350;28;29018;-71
2024/01/02 01:34:09;;;;;;;15.25;2.78;;;;;;;-146.25;100.00;52587.19;2073108;28;20039;-71
2024/01/02 01:35:11;;;;;;;17.80;2.60;;;;;;;-146.25;100.00;52585.16;2081191;28;20073;-71
2024/01/02 01:36:13;;;;;;;13.88;3.15;;;;;;;-146.25;100.00;52554.75;2071569;28;28946;-71
2024/01/02 01:37:15;;;;;;;16.73;2.67;;;;;;;-146.25;100.00;52577.03;2072632;28;20986;-71
2024/01/02 01:38:17;;;;;;;11.75;2.15;;;;;;;-146.25;100.00;52575.00;2063504;28;31263;-71
2024/01/02 01:39:19;;;;;;;18.00;3.15;;;;;;;-146.25;100.00;52591.25;2064080;28;24533;-70
2024/01/02 01:40:20;;;;;;;15.48;2.47;;;;;;;-146.25;100.00;52603.41;2081325;28;20034;-70
2024/01/02 01:41:22;;;;;;;20.08;3.53;;;;;;;-146.25;100.00;52605.44;2079606;28;33021;-71
2024/01/02 01:42:24;;;;;;;17.65;2.58;;;;;;;-146.25;100.00;52595.28;2080128;28;24207;-71
2024/01/02 01:43:26;;;;;;;20.23;2.95;;;;;;;-146.25;100.00;52607.47;2080402;28;20993;-71
2024/01/02 01:44:28;;;;;;;11.88;2.45;;;;;;;-146.25;100.00;52599.34;2080740;28;30470;-70
2024/01/02 01:45:32;;;;;;;16.98;3.00;;;;;;;-146.25;100.00;52589.22;2079911;28;25444;-71
2024/01/02 01:46:37;;;;;;;14.35;2.30;;;;;;;-146.25;100.00;52562.84;2072124;28;20054;-69
2024/01/02 01:47:39;;;;;;;13.20;2.60;;;;;;;-146.25;100.00;52591.25;2080088;28;29886;-69
2024/01/02 01:48:42;;;;;;;13.75;2.70;;;;;;;-146.25;100.00;52605.44;2080917;28;22296;-69
2024/01/02 01:49:45;;;;;;;14.30;2.72;;;;;;;-146.25;100.00;52579.06;2071509;28;20165;-69
2024/01/02 01:50:49;;;;;;;15.15;2.58;;;;;;;-146.25;100.00;52599.34;2072502;28;27966;-70
2024/01/02 01:51:54;;;;;;;12.25;2.45;;;;;;;-146.25;100.00;52589.22;2081071;28;20042;-71
2024/01/02 01:52:58;;;;;;;15.90;2.67;;;;;;;-146.25;100.00;52625.72;2080542;28;27925;-71
2024/01/02 01:54:03;;;;;;;17.40;2.35;;;;;;;-146.25;100.00;52605.44;2079934;28;30242;-71
2024/01/02 01:55:06;;;;;;;18.20;2.55;;;;;;;-146.25;100.00;52589.22;2080290;28;20045;-71
2024/01/02 01:56:08;;;;;;;15.20;2.85;;;;;;;-146.25;100.00;52570.97;2080204;28;21043;-71
2024/01/02 01:57:12;;;;;;;12.85;2.75;;;;;;;-146.25;100.00;52564.88;2064111;28;20141;-71
2024/01/02 01:58:16;;;;;;;11.77;2.72;;;;;;;-146.25;100.00;52534.47;2072288;28;20050;-70
2024/01/02 01:59:19;;;;;;;15.75;2.50;;;;;;;-146.25;100.00;52550.69;2072025;28;23236;-70
2024/01/02 02:00:21;;;;;;;14.27;2.65;;;;;;;-146.25;100.00;52573.00;2070634;28;20210;-70
2024/01/02 02:01:26;;;;;;;14.35;2.90;;;;;;;-146.25;100.00;52560.81;2080450;28;20042;-70
2024/01/02 02:02:28;;;;;;;12.38;2.45;;;;;;;-146.25;100.00;52587.19;2071286;28;26327;-70
2024/01/02 02:03:30;;;;;;;12.93;2.35;;;;;;;-146.25;100.00;52577.03;2064901;28;21824;-71
2024/01/02 02:04:35;;;;;;;16.25;2.45;;;;;;;-146.25;100.00;52550.69;2063533;28;34230;-70
2024/01/02 02:05:39;;;;;;;20.45;2.85;;;;;;;-146.25;100.00;52560.81;2064882;28;20889;-69
2024/01/02 02:06:43;;;;;;;17.25;2.92;;;;;;;-146.25;100.00;52566.91;2072917;28;20136;-69
2024/01/02 02:07:46;;;;;;;15.38;2.30;;;;;;;-146.25;100.00;52564.88;2086076;28;22259;-69
2024/01/02 02:08:50;;;;;;;15.73;2.88;;;;;;;-146.25;100.00;52619.63;2088457;28;24833;-69
2024/01/02 02:09:54;;;;;;;17.73;2.95;;;;;;;-146.25;100.00;52573.00;2089047;28;20064;-69
2024/01/02 02:10:59;;;;;;;14.77;2.45;;;;;;;-146.25;100.00;52564.88;2085389;28;28648;-68
2024/01/02 02:12:02;;;;;;;15.13;2.60;;;;;;;-146.25;100.00;52583.13;2072030;28;20043;-69
2024/01/02 02:13:04;;;;;;;16.50;2.70;;;;;;;-146.25;100.00;52591.25;2071502;28;30225;-69
2024/01/02 02:14:08;;;;;;;13.95;2.75;;;;;;;-146.25;100.00;52566.91;2071792;28;22694;-70
2024/01/02 02:15:13;;;;;;;22.08;2.65;;;;;;;-146.25;100.00;52583.13;2072075;28;26644;-69
2024/01/02 02:16:16;;;;;;;15.13;2.33;;;;;;;-146.25;100.00;52631.78;2079857;28;20898;-71
2024/01/02 02:17:22;;;;;;;18.90;2.70;;;;;;;-146.25;100.00;52583.13;2071450;28;32953;-70
2024/01/02 02:18:24;;;;;;;16.27;2.58;;;;;;;-146.25;100.00;52579.06;2071669;28;20206;-70
2024/01/02 02:19:29;;;;;;;18.35;2.60;;;;;;;-146.25;100.00;52556.75;2071494;28;20931;-70
2024/01/02 02:20:31;;;;;;;19.48;3.20;;;;;;;-146.25;100.00;52587.19;2072011;28;20042;-70
2024/01/02 02:21:35;;;;;;;10.35;2.17;;;;;;;-146.25;100.00;52556.75;2071840;28;20054;-68
2024/01/02 02:22:39;;;;;;;15.10;2.70;;;;;;;-146.25;100.00;52577.03;2055912;28;20238;-70
2024/01/02 02:23:41;;;;;;;18.45;2.63;;;;;;;-146.25;100.00;52607.47;2056881;28;20071;-70
2024/01/02 02:24:45;;;;;;;16.83;2.92;;;;;;;-146.25;100.00;52603.41;2064798;28;20157;-70
2024/01/02 02:25:47;;;;;;;17.08;2.97;;;;;;;-146.25;100.00;52554.75;2080391;28;26430;-70
2024/01/02 02:26:49;;;;;;;16.70;2.65;;;;;;;-146.25;100.00;52583.13;2080760;28;24726;-70
2024/01/02 02:27:53;;;;;;;15.98;2.30;;;;;;;-146.25;100.00;52605.44;2080676;28;28804;-70
2024/01/02 02:28:55;;;;;;;16.17;2.92;;;;;;;-146.25;100.00;52641.94;2071467;28;29384;-70
2024/01/02 02:29:57;;;;;;;13.35;2.30;;;;;;;-146.25;100.00;52615.56;2072480;28;23910;-71
2024/01/02 02:30:58;;;;;;;12.05;2.30;;;;;;;-146.25;100.00;52613.53;2071712;28;29020;-70
2024/01/02 02:32:00;;;;;;;14.35;3.08;;;;;;;-146.25;100.00;52611.50;2071823;28;25486;-69
2024/01/02 02:33:02;;;;;;;20.30;2.88;;;;;;;-146.25;100.00;52589.22;2071497;28;30203;-70
2024/01/02 02:34:04;;;;;;;18.17;2.85;;;;;;;-146.25;100.00;52603.41;2071740;28;27841;-70
2024/01/02 02:35:08;;;;;;;13.45;2.63;;;;;;;-146.25;100.00;52562.84;2080244;28;35669;-70
2024/01/02 02:36:10;;;;;;;15.98;3.10;;;;;;;-146.25;100.00;52597.31;2071121;28;33813;-69
2024/01/02 02:37:12;;;;;;;14.30;2.60;;;;;;;-146.25;100.00;52566.91;2064044;28;30221;-71
2024/01/02 02:38:15;;;;;;;13.27;2.42;;;;;;;-146.25;100.00;52581.09;2071605;28;28317;-70
2024/01/02 02:39:17;;;;;;;13.77;2.30;;;;;;;-146.25;100.00;52579.06;2077930;28;24043;-70
2024/01/02 02:40:19;;;;;;;18.88;2.38;;;;;;;-146.25;100.00;52579.06;2080741;28;20046;-71
2024/01/02 02:41:23;;;;;;;17.55;2.50;;;;;;;-146.25;100.00;52601.38;2080303;28;30120;-70
2024/01/02 02:42:25;;;;;;;14.73;2.35;;;;;;;-146.25;100.00;52554.75;2071832;28;24255;-70
2024/01/02 02:43:27;;;;;;;12.30;2.25;;;;;;;-146.25;100.00;52554.75;2071748;28;29388;-71
2024/01/02 02:44:29;;;;;;;15.38;2.67;;;;;;;-146.25;100.00;52587.19;2080146;28;30842;-70
2024/01/02 02:45:33;;;;;;;18.95;2.40;;;;;;;-146.25;100.00;52583.13;2080283;28;32674;-71
2024/01/02 02:46:34;;;;;;;12.38;2.25;;;;;;;-146.25;100.00;52585.16;2080245;28;20049;-71
2024/01/02 02:47:39;;;;;;;17.23;2.40;;;;;;;-146.25;100.00;52637.88;2071535;28;20108;-71
2024/01/02 02:48:41;;;;;;;24.15;3.28;;;;;;;-146.25;100.00;52613.53;2071488;28;26433;-71
2024/01/02 02:49:43;;;;;;;12.18;2.17;;;;;;;-146.25;100.00;52589.22;2071841;28;21761;-71
2024/01/02 02:50:47;;;;;;;15.95;2.88;;;;;;;-146.25;100.00;52623.69;2079937;28;27539;-70
2024/01/02 02:51:49;;;;;;;17.35;2.38;;;;;;;-146.25;100.00;52579.06;2080589;28;24019;-70
2024/01/02 02:52:53;;;;;;;17.95;2.67;;;;;;;-146.25;100.00;52562.84;2080438;28;30962;-70
2024/01/02 02:53:55;;;;;;;12.30;2.15;;;;;;;-146.25;100.00;52570.97;2079647;28;25314;-71
2024/01/02 02:54:57;;;;;;;14.68;2.42;;;;;;;-146.25;100.00;52564.88;2080347;28;29648;-71
2024/01/02 02:55:59;;;;;;;16.55;2.85;;;;;;;-146.25;100.00;52577.03;2071679;28;20023;-70
2024/01/02 02:57:02;;;;;;;16.45;2.28;;;;;;;-146.25;100.00;52599.34;2062880;28;30145;-70
2024/01/02 02:58:04;;;;;;;17.65;2.72;;;;;;;-146.25;100.00;52593.25;2070983;28;25135;-71
2024/01/02 02:59:06;;;;;;;14.43;2.10;;;;;;;-146.25;100.00;52595.28;2071684;28;23631;-71
2024/01/02 03:00:10;;;;;;;14.52;2.40;;;;;;;-146.25;100.00;52587.19;2063383;28;23197;-71
2024/01/02 03:01:22;;;;;;;10.90;2.42;;;;;;;-146.25;100.00;52550.69;2071327;28;26119;-72
2024/01/02 03:02:26;;;;;;;12.45;2.05;;;;;;;-146.25;100.00;52583.13;2079551;28;34379;-71
2024/01/02 03:03:33;;;;;;;14.32;2.22;;;;;;;-146.25;100.00;52589.22;2079132;28;35853;-71
2024/01/02 03:04:35;;;;;;;12.27;1.88;;;;;;;-146.25;100.00;52589.22;2079919;28;33281;-71
2024/01/02 03:05:36;;;;;;;16.30;2.35;;;;;;;-146.25;100.00;52597.31;2079176;28;36877;-70
2024/01/02 03:06:38;;;;;;;11.02;2.20;;;;;;;-146.25;100.00;52609.50;2070711;28;37993;-72
2024/01/02 03:07:41;;;;;;;14.73;2.28;;;;;;;-146.25;100.00;52595.28;2077960;28;34333;-71
2024/01/02 03:08:42;;;;;;;14.70;2.20;;;;;;;-146.25;100.00;52611.50;2078975;28;34975;-71
2024/01/02 03:09:45;;;;;;;12.13;2.15;;;;;;;-146.25;100.00;52617.59;2078935;28;33917;-71
2024/01/02 03:10:49;;;;;;;11.15;1.83;;;;;;;-146.25;100.00;52591.25;2070769;28;37993;-71
2024/01/02 03:11:51;;;;;;;17.27;2.40;;;;;;;-146.25;100.00;52583.13;2071453;28;35346;-71
2024/01/02 03:12:53;;;;;;;15.85;2.13;;;;;;;-146.25;100.00;52591.25;2080014;28;35153;-71
2024/01/02 03:13:55;;;;;;;12.63;1.38;;;;;;;-146.25;100.00;52560.81;2079525;28;34042;-71
2024/01/02 03:14:57;;;;;;;11.93;1.90;;;;;;;-146.25;100.00;52599.34;2079621;28;36749;-70
2024/01/02 03:15:59;;;;;;;15.63;2.25;;;;;;;-146.25;100.00;52575.00;2078236;28;34206;-70
2024/01/02 03:17:00;;;;;;;12.32;2.10;;;;;;;-146.25;100.00;52577.03;2079536;28;34101;-70
2024/01/02 03:18:03;;;;;;;19.20;2.58;;;;;;;-146.25;100.00;52591.25;2088117;28;32570;-71
2024/01/02 03:19:05;;;;;;;13.77;2.00;;;;;;;-146.25;100.00;52589.22;2088354;28;28214;-70
2024/01/02 03:20:07;;;;;;;13.80;2.28;;;;;;;-146.25;100.00;52550.69;2088206;28;36335;-69
2024/01/02 03:21:10;;;;;;;14.73;2.63;;;;;;;-146.25;100.00;52546.63;2088068;28;34842;-70
2024/01/02 03:22:14;;;;;;;15.75;2.00;;;;;;;-146.25;100.00;52550.69;2087332;28;32584;-70
2024/01/02 03:23:16;;;;;;;18.02;1.90;;;;;;;-146.25;100.00;52595.28;2087250;28;35919;-70
2024/01/02 03:24:18;;;;;;;14.80;2.22;;;;;;;-146.25;100.00;52633.81;2088262;28;20048;-70
2024/01/02 03:25:20;;;;;;;15.43;2.03;;;;;;;-146.25;100.00;52570.97;2087462;28;33549;-70
2024/01/02 03:26:22;;;;;;;12.25;1.70;;;;;;;-146.25;100.00;52575.00;2087564;28;35571;-70
2024/01/02 03:27:24;;;;;;;14.80;1.70;;;;;;;-146.25;100.00;52591.25;2087869;28;20965;-70
2024/01/02 03:28:26;;;;;;;14.38;1.70;;;;;;;-146.25;100.00;52566.91;2087647;28;30432;-70
2024/01/02 03:29:30;;;;;;;9.70;1.13;;;;;;;-146.25;100.00;52573.00;2088291;28;29756;-70
2024/01/02 03:30:32;;;;;;;15.68;1.75;;;;;;;-146.25;100.00;52619.63;2087866;28;31616;-69
2024/01/02 03:31:36;;;;;;;14.43;1.60;;;;;;;-146.25;100.00;52556.75;2088159;28;36047;-71
2024/01/02 03:32:38;;;;;;;12.00;1.70;;;;;;;-146.25;100.00;52609.50;2087913;28;36054;-71
2024/01/02 03:33:40;;;;;;;12.93;1.52;;;;;;;-146.25;100.00;52579.06;2080067;28;36300;-72
2024/01/02 03:34:44;;;;;;;15.38;1.58;;;;;;;-146.25;100.00;52577.03;2079988;28;34046;-71
2024/01/02 03:35:45;;;;;;;11.13;1.88;;;;;;;-146.25;100.00;52570.97;2080060;28;27696;-71
2024/01/02 03:36:47;;;;;;;14.82;1.65;;;;;;;-146.25;100.00;52577.03;2074004;28;33375;-71
2024/01/02 03:37:49;;;;;;;10.20;1.70;;;;;;;-146.25;100.00;52591.25;2071810;28;31973;-70
2024/01/02 03:38:51;;;;;;;13.70;2.08;;;;;;;-146.25;100.00;52601.38;2071752;28;35337;-70
2024/01/02 03:39:53;;;;;;;15.93;1.73;;;;;;;-146.25;100.00;52581.09;2071542;28;37468;-69
2024/01/02 03:40:55;;;;;;;11.20;1.70;;;;;;;-146.25;100.00;52619.63;2072000;28;20092;-69
2024/01/02 03:41:56;;;;;;;11.88;1.80;;;;;;;-146.25;100.00;52577.03;2071687;28;35182;-70
2024/01/02 03:42:58;;;;;;;11.57;1.63;;;;;;;-146.25;100.00;52595.28;2070925;28;35090;-71
2024/01/02 03:44:00;;;;;;;16.80;1.92;;;;;;;-146.25;100.00;52575.00;2071390;28;31400;-70
2024/01/02 03:45:02;;;;;;;21.77;2.00;;;;;;;-146.25;100.00;52562.84;2071578;28;36329;-70
2024/01/02 03:46:04;;;;;;;14.65;1.52;;;;;;;-146.25;100.00;52583.13;2071318;28;20193;-70
2024/01/02 03:47:06;;;;;;;12.88;1.80;;;;;;;-146.25;100.00;52605.44;2071522;28;20042;-68
2024/01/02 03:48:08;;;;;;;12.95;1.70;;;;;;;-146.25;100.00;52583.13;2071314;28;35586;-70
2024/01/02 03:49:10;;;;;;;15.35;1.88;;;;;;;-146.25;100.00;52611.50;2071789;28;33186;-71
2024/01/02 03:50:12;;;;;;;13.27;1.67;;;;;;;-146.25;100.00;52577.03;2072263;28;20103;-70
2024/01/02 03:51:14;;;;;;;15.70;1.63;;;;;;;-146.25;100.00;52579.06;2071672;28;34889;-70
2024/01/02 03:52:16;;;;;;;16.23;2.00;;;;;;;-146.25;100.00;52593.25;2071792;28;33583;-70
2024/01/02 03:53:17;;;;;;;13.20;1.35;;;;;;;-146.25;100.00;52585.16;2072085;28;20050;-71
2024/01/02 03:54:19;;;;;;;18.75;1.95;;;;;;;-146.25;100.00;52611.50;2071572;28;36540;-71
2024/01/02 03:55:21;;;;;;;15.52;1.75;;;;;;;-146.25;100.00;52579.06;2071493;28;33721;-70
2024/01/02 03:56:23;;;;;;;12.00;1.73;;;;;;;-146.25;100.00;52595.28;2071585;28;31098;-70
2024/01/02 03:57:27;;;;;;;12.05;1.80;;;;;;;-146.25;100.00;52591.25;2072053;28;20050;-70
2024/01/02 03:58:30;;;;;;;12.38;1.75;;;;;;;-146.25;100.00;52619.63;2071379;28;34124;-70
2024/01/02 03:59:35;;;;;;;20.35;1.65;;;;;;;-146.25;100.00;52595.28;2072377;28;20221;-69
2024/01/02 04:00:39;;;;;;;13.82;1.63;;;;;;;-146.25;100.00;52609.50;2071301;28;35925;-70
2024/01/02 04:01:45;;;;;;;12.55;1.45;;;;;;;-146.25;100.00;52560.81;2071602;28;30883;-70
2024/01/02 04:02:47;;;;;;;12.20;1.60;;;;;;;-146.25;100.00;52544.59;2072856;28;20134;-69
2024/01/02 04:03:49;;;;;;;13.70;1.75;;;;;;;-146.25;100.00;52560.81;2079311;28;35903;-70
2024/01/02 04:04:50;;;;;;;10.02;1.17;;;;;;;-146.25;100.00;52560.81;2079675;28;32095;-70
2024/01/02 04:05:53;;;;;;;10.82;1.30;;;;;;;-146.25;100.00;52577.03;2078980;28;34169;-70
2024/01/02 04:06:55;;;;;;;15.15;1.55;;;;;;;-146.25;100.00;52562.84;2078498;28;36763;-70
2024/01/02 04:07:56;;;;;;;16.10;1.60;;;;;;;-146.25;100.00;52585.16;2087278;28;33515;-70
2024/01/02 04:09:00;;;;;;;15.07;1.73;;;;;;;-146.25;100.00;52556.75;2087097;28;20029;-70
2024/01/02 04:10:02;;;;;;;10.90;1.20;;;;;;;-146.25;100.00;52581.09;2079495;28;34500;-70
2024/01/02 04:11:07;;;;;;;17.33;1.77;;;;;;;-146.25;100.00;52562.84;2079971;28;33080;-70
2024/01/02 04:12:08;;;;;;;13.40;1.35;;;;;;;-146.25;100.00;52570.97;2079070;28;35393;-71
2024/01/02 04:13:10;;;;;;;14.55;1.50;;;;;;;-146.25;100.00;52603.41;2078777;28;33757;-70
2024/01/02 04:14:12;;;;;;;12.40;1.70;;;;;;;-146.25;100.00;52568.94;2079724;28;33875;-70
2024/01/02 04:15:15;;;;;;;19.27;2.05;;;;;;;-146.25;100.00;52591.25;2079559;28;33107;-71
2024/01/02 04:16:16;;;;;;;14.15;1.50;;;;;;;-146.25;100.00;52542.56;2079533;28;36603;-70
2024/01/02 04:17:18;;;;;;;14.50;1.65;;;;;;;-146.25;100.00;52585.16;2080264;28;20870;-70
2024/01/02 04:18:20;;;;;;;16.48;1.83;;;;;;;-146.25;100.00;52564.88;2079577;28;35054;-70
2024/01/02 04:19:22;;;;;;;12.25;1.23;;;;;;;-146.25;100.00;52579.06;2078901;28;35913;-70
2024/01/02 04:20:24;;;;;;;9.63;1.52;;;;;;;-146.25;100.00;52575.00;2079153;28;34254;-70
2024/01/02 04:21:26;;;;;;;9.40;1.40;;;;;;;-146.25;100.00;52583.13;2079649;28;35042;-72
2024/01/02 04:22:28;;;;;;;14.77;1.60;;;;;;;-146.25;100.00;52575.00;2079230;28;20988;-72
2024/01/02 04:23:29;;;;;;;12.45;1.83;;;;;;;-146.25;100.00;52595.28;2079035;28;34303;-72
2024/01/02 04:24:33;;;;;;;15.70;1.50;;;;;;;-146.25;100.00;52562.84;2079889;28;21025;-72
2024/01/02 04:25:35;;;;;;;13.63;1.80;;;;;;;-146.25;100.00;52550.69;2080124;28;20053;-70
2024/01/02 04:26:37;;;;;;;16.30;2.05;;;;;;;-146.25;100.00;52611.50;2079639;28;37737;-71
2024/01/02 04:27:39;;;;;;;16.13;1.73;;;;;;;-146.25;100.00;52587.19;2079491;28;35338;-71
2024/01/02 04:28:41;;;;;;;16.77;2.03;;;;;;;-146.25;100.00;52619.63;2080285;28;20084;-71
2024/01/02 04:29:42;;;;;;;15.95;1.50;;;;;;;-146.25;100.00;52603.41;2079401;28;35109;-70
2024/01/02 04:30:44;;;;;;;15.38;1.70;;;;;;;-146.25;100.00;52575.00;2079369;28;33466;-72
2024/01/02 04:31:46;;;;;;;16.85;1.88;;;;;;;-146.25;100.00;52581.09;2080402;28;20888;-72
2024/01/02 04:32:51;;;;;;;19.20;2.13;;;;;;;-146.25;100.00;52579.06;2078108;28;36276;-72
2024/01/02 04:33:53;;;;;;;15.45;2.28;;;;;;;-146.25;100.00;52591.25;2071580;28;33697;-69
2024/01/02 04:34:55;;;;;;;17.92;2.25;;;;;;;-146.25;100.00;52587.19;2079512;28;20161;-69
2024/01/02 04:35:57;;;;;;;13.15;1.88;;;;;;;-146.25;100.00;52528.38;2079691;28;33754;-70
2024/01/02 04:36:58;;;;;;;12.73;1.65;;;;;;;-146.25;100.00;52599.34;2079672;28;32439;-68
2024/01/02 04:38:00;;;;;;;13.48;1.55;;;;;;;-146.25;100.00;52570.97;2079020;28;34447;-70
2024/01/02 04:39:03;;;;;;;14.77;2.25;;;;;;;-146.25;100.00;52599.34;2079756;28;33367;-69
2024/01/02 04:40:06;;;;;;;15.35;2.30;;;;;;;-146.25;100.00;52552.72;2079358;28;34585;-70
2024/01/02 04:41:08;;;;;;;13.18;1.92;;;;;;;-146.25;100.00;52603.41;2071321;28;20035;-69